Kapuskasing Airport
CYYU : now visible

Airfield :











YOU CAN JOIN US ON...

 
LOGIN :

Register | Disclaimer

   EN    FR    IT 

 









Legend :    VFR   Marginal VFR   IFR   Intensive IFR   Very Intensive IFR
Visi :
Ceiling :
>= 8 km
>= 3000ft
5 to 8 km
1000 to 3000 ft
1500m to 5 km
500 to 1000 ft
800 to 1500m
200 to 500 ft
< 800m
< 200 ft
Symbols :   Thunderstorms  Fog  Heavy snow  Heavy precipitations  Wind > 20 kt






- Airport Elevation : 743 ft
- IATA code : YYU


CYYU - Kapuskasing

CURRENT METAR :
  • 281600Z 19003KT 9SM -SHRA FEW016 BKN110 OVC260 21/18 A2981 RMK CU2AC4CI2 SLP099 DENSITY ALT 1800FT

EXPIRED METARs :
  • 281550Z 19006KT 8SM -SHRA FEW016 BKN110 OVC260 21/18 A2982 RMK CU1AC5CI2 SLP100 DENSITY ALT 1800FT
  • 281500Z 21003KT 170V250 15SM FEW014 BKN092 OVC120 21/17 A2982 RMK CU1AC5AC2 SLP102 DENSITY ALT 1700FT
  • 281400Z 25004KT 12SM FEW014 BKN093 OVC130 20/18 A2983 RMK CF1AC4AC3 HZ SLP103 DENSITY ALT 1700FT

TAF TAF CYYU
Valid from the 28 at 14:00 until the 29 at 02:00 UTC


281330Z 2814/2902 21008KT P6SM BKN100
FM281600 21008KT P6SM -RA BKN030
TEMPO 2816/2822 2SM -SHRA BR OVC008
PROB30 2819/2822 VRB15G25KT 2SM TSRA BR OVC008CB
FM282200 30008KT 2SM -RA BR OVC006 RMK NXT FCST BY 282000Z
CZYZ FIR / North America



MET'MAP, your aeronautical weather chart ! - Copyright ORBIFLY December 2007 - Disclaimer

ORBIFLY MET'MAP TEAM :

Programming & Development : Alexandra Zaïnal
Concept & original design : Baudouin d'Aumeries
Assistance for programming : Marc-Olivier Méhu
Technical & hardware support : Manuel Goepfert

Contact : metmap@orbifly.com




SOURCES & CREDITS :

   NOAA       Earth
Advisory